• Join FlightAware (Why Join?)
  • Login
  • US Flag 
08:44AM EST


 

Airport Tracker/Info


-or-


 

Live Flight TrackerFlight Track Log ✈ GJS3707 ✈ 06-Jun-2013 ✈ KBOI - KORD

Flight Track Log - Related Links

Times and Time Zones

All times are in EDT time to prevent confusion due to time zone crossing. See the GJS3707 flight status page for this flight to view local times or setup timezone preferences in your user account.

Time Position Orientation Groundspeed Altitude Reporting Facility
EDT Latitude Longitude Course Direction KTS MPH feet Rate Location/Type
03:09PM 43.6261 -116.3708 306° West 244 281 6,400  Level Salt Lake Center
03:10PM 43.6753 -116.3047 44° Northeast 282 325 8,400 1,980 Climbing Salt Lake Center
03:11PM 43.6559 -115.5700 78° East  Level FlightAware Approximate
03:11PM 43.6817 -116.1972 85° East 294 338 10,500  Level Salt Lake Center
03:12PM 43.6754 -115.4043 83° East  Level FlightAware Approximate
03:12PM 43.6986 -116.0608 80° East 320 368 12,200  Level Salt Lake Center
03:13PM 43.6974 -115.2412 65° Northeast  Level FlightAware Approximate
03:13PM 43.7144 -115.9272 81° East 362 417 13,800  Level Salt Lake Center
03:14PM 43.7175 -115.0770 81° East  Level FlightAware Approximate
03:14PM 43.7339 -115.7678 80° East 377 434 15,700  Level Salt Lake Center
03:16PM 43.7283 -115.6203 93° East 402 463 17,100 1,380 Climbing Salt Lake Center
03:17PM 43.7147 -115.4428 96° East 416 479 18,600 1,500 Climbing Salt Lake Center
03:19PM 43.6883 -115.0981 96° East 437 503 21,800 1,440 Climbing Salt Lake Center
03:20PM 43.6778 -114.9367 95° East 441 507 23,200 1,380 Climbing Salt Lake Center
03:21PM 43.6703 -114.7733 94° East 445 512 24,700 1,260 Climbing Salt Lake Center
03:22PM 43.6597 -114.5828 94° East 447 514 25,900 1,020 Climbing Salt Lake Center
03:23PM 43.6747 -114.4206 83° East 448 516 26,900 960 Climbing Salt Lake Center
03:24PM 43.7128 -114.2342 74° East 452 520 28,000 960 Climbing Salt Lake Center
03:25PM 43.7453 -114.0714 74° East 460 529 29,000 960 Climbing Salt Lake Center
03:26PM 43.7822 -113.8778 75° East 462 532 30,100 1,020 Climbing Salt Lake Center
03:27PM 43.8150 -113.7133 75° East 464 534 31,100 840 Climbing Salt Lake Center
03:28PM 43.8508 -113.5194 76° East 468 539 31,900 780 Climbing Salt Lake Center
03:30PM 43.9125 -113.1842 76° East 472 543 33,600 840 Climbing Salt Lake Center
03:31PM 43.9481 -112.9872 76° East 471 542 34,600 840 Climbing Salt Lake Center
03:32PM 43.9792 -112.8203 75° East 468 539 35,400 840 Climbing Salt Lake Center
03:33PM 43.9975 -112.6222 83° East 467 537 36,400 720 Climbing Salt Lake Center
03:34PM 44.0036 -112.4500 87° East 467 537 36,900 240 Climbing Salt Lake Center
03:35PM 44.0111 -112.2469 87° East 473 544 37,000  Climbing Salt Lake Center
03:36PM 44.0178 -112.0714 87° East 476 548 37,000  Level Salt Lake Center
03:37PM 44.0242 -111.8675 87° East 476 548 37,000  Level Salt Lake Center
03:38PM 44.0292 -111.6936 88° East 475 547 37,000  Level Salt Lake Center
03:39PM 44.0353 -111.4903 88° East 475 547 37,000  Level Salt Lake Center
03:40PM 44.0400 -111.3158 88° East 476 548 37,000  Level Salt Lake Center
03:41PM 44.0456 -111.1128 88° East 474 545 37,000  Level Salt Lake Center
03:42PM 44.0497 -110.9381 88° East 476 548 37,000  Level Salt Lake Center
03:43PM 44.0544 -110.7336 88° East 476 548 37,000  Level Salt Lake Center
03:44PM 44.0592 -110.5592 88° East 474 545 37,000  Level Salt Lake Center
03:45PM 44.0628 -110.3550 89° East 475 547 37,000  Level Salt Lake Center
03:46PM 44.0656 -110.1806 89° East 473 544 37,000  Level Salt Lake Center
03:47PM 44.0692 -110.0050 88° East 475 547 37,000  Level Salt Lake Center
03:49PM 44.0714 -109.8011 89° East 474 545 37,000  Level Salt Lake Center
03:50PM 44.0739 -109.6278 89° East 475 547 37,000  Level Salt Lake Center
03:51PM 44.0750 -109.4247 89° East 471 542 37,000  Level Salt Lake Center
03:52PM 44.0769 -109.2494 89° East 473 544 37,000  Level Salt Lake Center
03:53PM 44.0789 -109.0464 89° East 472 543 37,000  Level Salt Lake Center
03:54PM 44.0800 -108.8714 89° East 473 544 37,000  Level Salt Lake Center
03:55PM 44.0806 -108.6683 90° East 472 543 37,000  Level Salt Lake Center
03:56PM 44.0811 -108.4928 90° East 473 544 37,000  Level Salt Lake Center
03:57PM 44.0817 -108.3078 90° East 471 542 37,000  Level Salt Lake Center
03:58PM 44.0808 -108.1042 90° East 471 542 37,000  Level Salt Lake Center
03:59PM 44.0806 -107.9303 90° East 471 542 37,000  Level Salt Lake Center
04:00PM 44.0808 -107.7289 90° East 469 540 37,000  Level Salt Lake Center
04:01PM 44.0800 -107.5569 90° East 467 537 37,000  Level Salt Lake Center
04:02PM 44.0800 -107.3822 90° East 468 539 37,000  Level Salt Lake Center
04:03PM 44.0769 -107.1714 91° East 473 544 37,000  Level Salt Lake Center
04:04PM 44.0772 -107.0517 90° East 475 547 37,000  Level Denver Center
04:05PM 44.0742 -106.8492 91° East 472 543 37,000  Level Denver Center
04:05PM 44.0744 -106.7925 90° East 474 545 37,000  Level Salt Lake Center
04:06PM 44.0697 -106.6203 92° East 470 541 37,000  Level Salt Lake Center
04:07PM 44.0667 -106.4739 92° East 470 541 37,000  Level Denver Center
04:08PM 44.0642 -106.2992 91° East 471 542 37,000  Level Denver Center
04:08PM 44.0642 -106.2417 90° East 472 543 37,000  Level Salt Lake Center
04:09PM 44.0622 -106.1236 91° East 473 544 37,000  Level Denver Center
04:10PM 44.0578 -105.8894 91° East 474 545 37,000  Level Denver Center
04:11PM 44.0525 -105.6858 92° East 473 544 37,000  Level Denver Center
04:12PM 44.0486 -105.5108 92° East 473 544 37,000  Level Denver Center
04:13PM 44.0428 -105.3075 92° East 472 543 37,000  Level Denver Center
04:14PM 44.0392 -105.1325 92° East 472 543 37,000  Level Denver Center
04:15PM 44.0333 -104.9569 93° East 473 544 37,000  Level Denver Center
04:16PM 44.0275 -104.7514 92° East 474 545 37,000  Level Denver Center
04:17PM 44.0222 -104.5756 92° East 475 547 37,000  Level Denver Center
04:18PM 44.0153 -104.3744 93° East 472 543 37,000  Level Denver Center
04:19PM 44.0089 -104.2031 93° East 466 536 37,000  Level Denver Center
04:20PM 44.0014 -104.0017 93° East 468 539 37,000  Level Denver Center
04:21PM 43.9956 -103.8300 93° East 466 536 37,000  Level Denver Center
04:22PM 43.9869 -103.6297 93° East 464 534 37,000  Level Denver Center
04:24PM 43.9800 -103.4572 93° East 466 536 37,000  Level Denver Center
04:25PM 43.9719 -103.2611 93° East 459 528 37,000  Level Denver Center
04:26PM 43.9633 -103.0903 94° East 461 531 37,000  Level Denver Center
04:27PM 43.9533 -102.8931 94° East 460 529 37,000  Level Denver Center
04:28PM 43.9472 -102.7481 93° East 456 525 37,000  Level Denver Center
04:29PM 43.9344 -102.5383 95° East 456 525 37,000  Level Denver Center
04:30PM 43.9236 -102.3619 95° East 458 527 37,000  Level Denver Center
04:31PM 43.9164 -102.2217 94° East 458 527 37,000  Level Denver Center
04:32PM 43.9053 -102.0103 94° East 459 528 37,000  Level Denver Center
04:33PM 43.8956 -101.8347 94° East 459 528 37,000  Level Denver Center
04:34PM 43.8900 -101.6628 93° East 452 520 37,000  Level Denver Center
04:34PM 43.8828 -101.5886 98° East 460 529 37,000  Level Minneapolis Center
04:35PM 43.8725 -101.4119 95° East 461 531 37,000  Level Minneapolis Center
04:36PM 43.8589 -101.1989 95° East 462 532 37,000  Level Minneapolis Center
04:37PM 43.8519 -101.0592 94° East 465 535 37,000  Level Denver Center
04:38PM 43.8403 -100.8811 95° East 467 537 37,000  Level Denver Center
04:39PM 43.8283 -100.7036 95° East 466 536 37,000  Level Denver Center
04:40PM 43.8197 -100.5600 95° East 469 540 37,000  Level Denver Center
04:41PM 43.8025 -100.3086 95° East 470 541 37,000  Level Denver Center
04:42PM 43.7864 -100.0950 96° East 469 540 37,000  Level Minneapolis Center
04:44PM 43.7750 -99.9189 95° East 467 537 37,000  Level Minneapolis Center
04:45PM 43.7628 -99.7447 95° East 463 533 37,000  Level Minneapolis Center
04:46PM 43.7489 -99.5711 96° East 461 531 37,000  Level Minneapolis Center
04:47PM 43.7367 -99.3989 96° East 457 526 37,000  Level Minneapolis Center
04:48PM 43.7208 -99.1939 96° East 452 520 37,000  Level Minneapolis Center
04:49PM 43.7064 -99.0253 97° East 448 516 37,000  Level Minneapolis Center
04:50PM 43.6925 -98.8550 96° East 447 514 37,000  Level Minneapolis Center
04:51PM 43.6778 -98.6858 97° East 445 512 37,000  Level Minneapolis Center
04:52PM 43.6625 -98.5178 97° East 445 512 37,000  Level Minneapolis Center
04:53PM 43.6486 -98.3472 96° East 446 513 37,000  Level Minneapolis Center
04:54PM 43.6311 -98.1408 97° East 451 519 37,000  Level Minneapolis Center
04:55PM 43.6144 -97.9678 98° East 455 524 37,000  Level Minneapolis Center
04:56PM 43.5983 -97.7956 97° East 455 524 37,000  Level Minneapolis Center
04:57PM 43.5828 -97.6208 97° East 460 529 37,000  Level Minneapolis Center
04:58PM 43.5669 -97.4458 97° East 461 531 37,000  Level Minneapolis Center
04:59PM 43.5456 -97.2361 98° East 462 532 37,000  Level Minneapolis Center
05:00PM 43.5283 -97.0600 98° East 465 535 37,000  Level Minneapolis Center
05:01PM 43.5108 -96.8847 98° East 465 535 37,000  Level Minneapolis Center
05:02PM 43.4936 -96.7100 98° East 465 535 37,000  Level Minneapolis Center
05:03PM 43.4756 -96.5319 98° East 468 539 37,000  Level Minneapolis Center
05:04PM 43.4528 -96.3197 98° East 471 542 37,000  Level Minneapolis Center
05:05PM 43.4333 -96.1414 98° East 474 545 37,000  Level Minneapolis Center
05:06PM 43.4147 -95.9631 98° East 476 548 37,000  Level Minneapolis Center
05:07PM 43.3950 -95.7847 99° East 476 548 37,000  Level Minneapolis Center
05:08PM 43.3758 -95.6075 98° East 473 544 37,000  Level Minneapolis Center
05:09PM 43.3511 -95.3964 99° East 471 542 37,000  Level Minneapolis Center
05:10PM 43.3300 -95.2192 99° East 472 543 37,000  Level Minneapolis Center
05:11PM 43.3103 -95.0422 99° East 471 542 37,000  Level Minneapolis Center
05:12PM 43.2889 -94.8664 99° East 471 542 37,000  Level Minneapolis Center
05:14PM 43.2678 -94.6903 99° East 470 541 37,000  Level Minneapolis Center
05:15PM 43.2472 -94.5136 99° East 470 541 37,000  Level Minneapolis Center
05:16PM 43.2211 -94.3039 100° East 468 539 37,000  Level Minneapolis Center
05:17PM 43.1983 -94.1339 100° East 469 540 37,000  Level Minneapolis Center
05:18PM 43.1764 -93.9594 100° East 471 542 37,000  Level Minneapolis Center
05:19PM 43.1539 -93.7858 100° East 468 539 37,000  Level Minneapolis Center
05:20PM 43.1325 -93.6106 99° East 470 541 37,000  Level Minneapolis Center
05:21PM 43.1044 -93.4006 100° East 473 544 37,000  Level Minneapolis Center
05:22PM 43.0864 -93.2261 98° East 468 539 37,000  Level Minneapolis Center
05:23PM 43.0769 -93.0461 94° East 476 548 37,000  Level Minneapolis Center
05:24PM 43.0647 -92.8694 95° East 473 544 37,000  Level Minneapolis Center
05:25PM 43.0522 -92.6917 95° East 474 545 37,000  Level Minneapolis Center
05:26PM 43.0408 -92.5503 96° East 473 544 37,000  Level Chicago Center
05:27PM 43.0281 -92.3714 96° East 476 548 37,000 -60 Level Chicago Center
05:28PM 43.0142 -92.1928 96° East 476 548 36,900 -600 Descending Chicago Center
05:28PM 43.0108 -92.1189 94° East 480 552 36,200 -1,860 Descending Minneapolis Center
05:29PM 43.0014 -92.0092 97° East 486 559 35,000 -2,160 Descending Chicago Center
05:30PM 42.9847 -91.7881 96° East 487 560 32,500 -1,920 Descending Chicago Center
05:31PM 42.9711 -91.6025 96° East 487 560 31,000 -1,140 Descending Chicago Center
05:31PM 42.9697 -91.5644 93° East 486 559 31,000  Level Minneapolis Center
05:32PM 42.9506 -91.3461 97° East 480 552 31,000  Level Minneapolis Center
05:33PM 42.9425 -91.2394 96° East 479 551 31,000  Level Chicago Center
05:34PM 42.9275 -91.0603 96° East 477 549 31,000 -420 Level Chicago Center
05:35PM 42.9125 -90.8808 96° East 479 551 30,200 -1,080 Descending Chicago Center
05:36PM 42.8925 -90.6589 97° East 493 567 28,800 -1,260 Descending Chicago Center
05:37PM 42.8775 -90.4875 97° East 449 517 27,700 -1,020 Descending Chicago Center
05:38PM 42.8633 -90.3364 97° East 405 466 26,700 -1,020 Descending Chicago Center
05:39PM 42.8497 -90.1897 97° East 395 455 25,700 -1,020 Descending Chicago Center
05:40PM 42.8269 -90.0464 102° East 389 448 24,700 -1,200 Descending Chicago Center
05:41PM 42.7828 -89.8906 111° Southeast 388 447 23,300 -1,440 Descending Chicago Center
05:42PM 42.7467 -89.7611 111° Southeast 371 427 21,700 -1,560 Descending Chicago Center
05:43PM 42.7106 -89.6322 111° Southeast 366 421 20,100 -1,740 Descending Chicago Center
05:44PM 42.6675 -89.4836 111° Southeast 364 419 18,200 -1,800 Descending Chicago Center
05:45PM 42.6306 -89.3542 111° Southeast 367 422 16,500 -1,680 Descending Chicago Center
05:46PM 42.5947 -89.2319 112° Southeast 353 406 14,800 -1,260 Descending Chicago Center
05:47PM 42.5606 -89.1153 112° Southeast 338 389 14,000 -540 Descending Chicago Center
05:48PM 42.5278 -89.0061 112° Southeast 319 367 13,800 -540 Descending Chicago Center
05:49PM 42.4908 -88.8775 111° Southeast 316 364 13,000 -780 Descending Chicago Center
05:50PM 42.4789 -88.7603 98° East 324 373 12,300 -840 Descending Chicago Center
05:51PM 42.4469 -88.6556 112° Southeast 314 361 11,300 -1,020 Descending Chicago Center
05:52PM 42.4389 -88.5453 96° East 300 345 10,300 -960 Descending Chicago Center
05:54PM 42.3944 -88.4581 125° Southeast 292 336 9,300 -660 Descending Chicago Center
05:55PM 42.3344 -88.3756 135° Southeast 267 307 9,000 -180 Descending Chicago Center
05:56PM 42.2761 -88.3694 176° South 247 284 9,000 -420 Level Chicago Center
05:57PM 42.2094 -88.3567 172° South 208 239 8,200 -540 Descending Chicago Center
05:58PM 42.1536 -88.3503 175° South 203 234 8,000 -240 Descending Chicago Center
05:59PM 42.1092 -88.3750 202° Southwest 195 224 7,800 -600 Descending Chicago Center
06:00PM 42.0786 -88.4289 233° Southwest 186 214 6,800 -1,020 Descending Chicago Center
06:01PM 42.0322 -88.4508 199° South 199 229 5,800 -900 Descending Chicago Center
06:02PM 41.9739 -88.4317 166° South 188 216 5,000 -420 Descending Chicago Center
06:03PM 41.9669 -88.3625 98° East 187 215 5,000  Level Chicago Center
06:04PM 41.9664 -88.2928 91° East 190 219 5,000  Level Chicago Center
06:05PM 41.9681 -88.2264 88° East 182 209 5,000 -480 Level Chicago Center
06:06PM 41.9675 -88.1589 91° East 181 208 4,100 -900 Descending Chicago Center